Time;durP1;ratioP1;P1;durP2;ratioP2;P2;SDS_P1;SDS_P2;PMS_P1;PMS_P2;Temp;Humidity;BMP_temperature;BMP_pressure;BME280_temperature;BME280_humidity;BME280_pressure;Samples;Min_cycle;Max_cycle;Signal;HPM_P1;HPM_P2
2022/06/29 00:00:06;;;;;;;;;;;30.00;35.40;;;;;;5100228;28;1002;-44
2022/06/29 00:02:33;;;;;;;;;;;30.00;35.40;;;;;;5099890;28;881;-45
2022/06/29 00:05:00;;;;;;;;;;;30.00;35.40;;;;;;5100256;28;1007;-47
2022/06/29 00:07:27;;;;;;;;;;;30.00;35.50;;;;;;5099704;28;891;-44
2022/06/29 00:09:55;;;;;;;;;;;29.90;35.50;;;;;;5100203;28;990;-44
2022/06/29 00:12:22;;;;;;;;;;;30.00;35.60;;;;;;5099614;28;988;-44
2022/06/29 00:14:49;;;;;;;;;;;30.00;35.40;;;;;;5100102;28;1890;-44
2022/06/29 00:17:15;;;;;;;;;;;30.00;35.60;;;;;;5099659;28;988;-44
2022/06/29 00:19:42;;;;;;;;;;;30.00;35.60;;;;;;5100246;28;1022;-44
2022/06/29 00:22:10;;;;;;;;;;;30.00;35.60;;;;;;5099701;28;984;-44
2022/06/29 00:24:36;;;;;;;;;;;30.00;35.60;;;;;;5099930;28;936;-44
2022/06/29 00:27:05;;;;;;;;;;;30.00;35.60;;;;;;5099539;28;963;-44
2022/06/29 00:29:32;;;;;;;;;;;30.00;36.70;;;;;;5099640;28;1009;-44
2022/06/29 00:31:58;;;;;;;;;;;30.00;35.60;;;;;;5099281;28;1011;-44
2022/06/29 00:34:25;;;;;;;;;;;30.00;35.60;;;;;;5099631;28;1051;-44
2022/06/29 00:36:52;;;;;;;;;;;30.00;35.60;;;;;;5099455;28;1973;-44
2022/06/29 00:39:18;;;;;;;;;;;30.00;35.70;;;;;;5099431;28;960;-44
2022/06/29 00:41:47;;;;;;;;;;;30.10;35.70;;;;;;5098838;28;944;-46
2022/06/29 00:44:16;;;;;;;;;;;30.10;35.70;;;;;;5099426;28;1007;-44
2022/06/29 00:46:47;;;;;;;;;;;30.10;35.70;;;;;;5098998;28;936;-44
2022/06/29 00:49:14;;;;;;;;;;;30.10;35.80;;;;;;5099038;28;947;-45
2022/06/29 00:51:41;;;;;;;;;;;30.00;35.70;;;;;;5099527;28;987;-45
2022/06/29 00:54:09;;;;;;;;;;;30.10;35.70;;;;;;5099240;28;1000;-43
2022/06/29 00:56:36;;;;;;;;;;;30.00;35.70;;;;;;5098523;28;1985;-44
2022/06/29 00:59:03;;;;;;;;;;;30.10;35.80;;;;;;5099178;28;959;-44
2022/06/29 01:01:32;;;;;;;;;;;30.10;35.90;;;;;;5098943;28;1041;-44
2022/06/29 01:03:58;;;;;;;;;;;30.10;35.90;;;;;;5099091;28;1051;-44
2022/06/29 01:06:25;;;;;;;;;;;30.00;35.90;;;;;;5099053;28;1011;-45
2022/06/29 01:08:52;;;;;;;;;;;30.00;35.90;;;;;;5099749;28;907;-45
2022/06/29 01:11:19;;;;;;;;;;;30.00;36.00;;;;;;5098954;28;983;-43
2022/06/29 01:13:45;;;;;;;;;;;30.00;35.90;;;;;;5098831;28;955;-44
2022/06/29 01:16:12;;;;;;;;;;;30.00;36.00;;;;;;5098733;28;1906;-43
2022/06/29 01:18:40;;;;;;;;;;;30.00;36.00;;;;;;5098778;28;1174;-43
2022/06/29 01:21:10;;;;;;;;;;;30.00;36.00;;;;;;5098792;28;935;-43
2022/06/29 01:23:38;;;;;;;;;;;30.00;36.00;;;;;;5097885;28;951;-43
2022/06/29 01:26:05;;;;;;;;;;;30.00;36.00;;;;;;5098318;28;1004;-43
2022/06/29 01:28:32;;;;;;;;;;;30.00;36.10;;;;;;5098501;28;998;-43
2022/06/29 01:30:59;;;;;;;;;;;30.00;36.10;;;;;;5098422;28;1022;-44
2022/06/29 01:33:26;;;;;;;;;;;30.00;36.10;;;;;;5098310;28;1002;-44
2022/06/29 01:35:53;;;;;;;;;;;30.00;36.10;;;;;;5099022;28;1982;-43
2022/06/29 01:38:20;;;;;;;;;;;30.00;36.10;;;;;;5098662;28;1005;-43
2022/06/29 01:40:48;;;;;;;;;;;30.00;36.10;;;;;;5098239;28;1007;-43
2022/06/29 01:43:15;;;;;;;;;;;30.00;36.20;;;;;;5098210;28;936;-43
2022/06/29 01:45:41;;;;;;;;;;;30.00;36.20;;;;;;5098818;28;997;-43
2022/06/29 01:48:08;;;;;;;;;;;30.00;36.20;;;;;;5098438;28;975;-42
2022/06/29 01:50:35;;;;;;;;;;;30.00;36.30;;;;;;5098892;28;1068;-42
2022/06/29 01:53:02;;;;;;;;;;;30.00;36.20;;;;;;5098530;28;1020;-44
2022/06/29 01:55:28;;;;;;;;;;;30.00;36.30;;;;;;5098246;28;1980;-43
2022/06/29 01:57:57;;;;;;;;;;;30.00;36.30;;;;;;5098032;28;995;-43
2022/06/29 02:00:23;;;;;;;;;;;30.00;36.30;;;;;;5098380;28;1035;-43
2022/06/29 02:02:50;;;;;;;;;;;30.00;36.30;;;;;;5098311;28;936;-43
2022/06/29 02:05:17;;;;;;;;;;;30.00;36.30;;;;;;5098627;28;975;-43
2022/06/29 02:07:44;;;;;;;;;;;30.00;36.30;;;;;;5097724;28;980;-43
2022/06/29 02:10:10;;;;;;;;;;;30.00;36.30;;;;;;5098279;28;1000;-42
2022/06/29 02:12:37;;;;;;;;;;;30.00;36.40;;;;;;5098480;28;920;-43
2022/06/29 02:15:07;;;;;;;;;;;30.00;36.40;;;;;;5097706;28;1050;-43
2022/06/29 02:17:34;;;;;;;;;;;30.00;36.40;;;;;;5098056;28;1905;-42
2022/06/29 02:20:00;;;;;;;;;;;30.00;36.40;;;;;;5098276;28;1107;-43
2022/06/29 02:22:27;;;;;;;;;;;30.00;36.40;;;;;;5097873;28;958;-43
2022/06/29 02:24:54;;;;;;;;;;;29.90;36.40;;;;;;5097822;28;988;-42
2022/06/29 02:27:21;;;;;;;;;;;29.90;36.40;;;;;;5097906;28;991;-41
2022/06/29 02:29:48;;;;;;;;;;;29.90;36.50;;;;;;5097981;28;1010;-43
2022/06/29 02:35:00;;;;;;;;;;;29.90;36.50;;;;;;5100617;28;869;-43
2022/06/29 02:37:27;;;;;;;;;;;30.00;36.50;;;;;;5101684;28;1905;-42
2022/06/29 02:39:54;;;;;;;;;;;30.00;36.50;;;;;;5101947;28;1011;-42
2022/06/29 02:42:20;;;;;;;;;;;30.00;36.40;;;;;;5101318;28;1019;-42
2022/06/29 02:44:47;;;;;;;;;;;30.00;36.50;;;;;;5101621;28;1003;-43
2022/06/29 02:47:16;;;;;;;;;;;30.00;36.50;;;;;;5101877;28;986;-43
2022/06/29 02:49:43;;;;;;;;;;;29.90;36.60;;;;;;5101101;28;979;-43
2022/06/29 02:52:10;;;;;;;;;;;29.90;36.60;;;;;;5101849;28;932;-42
2022/06/29 02:54:37;;;;;;;;;;;29.90;36.60;;;;;;5101437;28;1016;-43
2022/06/29 02:57:04;;;;;;;;;;;29.90;36.60;;;;;;5101765;28;1890;-43
2022/06/29 02:59:31;;;;;;;;;;;29.90;36.70;;;;;;5101082;28;1012;-43
2022/06/29 03:01:57;;;;;;;;;;;29.90;36.60;;;;;;5100906;28;964;-42
2022/06/29 03:04:26;;;;;;;;;;;29.90;36.60;;;;;;5101270;28;1003;-43
2022/06/29 03:06:52;;;;;;;;;;;29.90;36.60;;;;;;5100869;28;944;-42
2022/06/29 03:09:19;;;;;;;;;;;29.90;36.70;;;;;;5100799;28;971;-43
2022/06/29 03:11:46;;;;;;;;;;;29.90;36.70;;;;;;5100746;28;975;-43
2022/06/29 03:14:12;;;;;;;;;;;29.90;36.70;;;;;;5100648;28;951;-43
2022/06/29 03:16:39;;;;;;;;;;;29.90;36.70;;;;;;5100935;28;1901;-44
2022/06/29 03:19:06;;;;;;;;;;;29.90;36.70;;;;;;5100640;28;1271;-43
2022/06/29 03:21:34;;;;;;;;;;;29.90;36.70;;;;;;5101142;28;1030;-43
2022/06/29 03:24:03;;;;;;;;;;;29.90;36.70;;;;;;5101029;28;932;-43
2022/06/29 03:26:30;;;;;;;;;;;29.90;36.70;;;;;;5100948;28;991;-42
2022/06/29 03:28:57;;;;;;;;;;;29.90;36.70;;;;;;5100541;28;964;-42
2022/06/29 03:31:24;;;;;;;;;;;29.90;36.70;;;;;;5100400;28;928;-43
2022/06/29 03:33:50;;;;;;;;;;;29.90;36.80;;;;;;5100696;28;951;-43
2022/06/29 03:36:17;;;;;;;;;;;29.90;36.80;;;;;;5100414;28;1894;-43
2022/06/29 03:38:45;;;;;;;;;;;29.90;36.80;;;;;;5100543;28;955;-43
2022/06/29 03:41:12;;;;;;;;;;;29.90;36.90;;;;;;5100653;28;931;-44
2022/06/29 03:43:38;;;;;;;;;;;29.90;36.80;;;;;;5100380;28;1776;-43
2022/06/29 03:46:05;;;;;;;;;;;29.90;36.80;;;;;;5100001;28;908;-43
2022/06/29 03:48:32;;;;;;;;;;;29.90;36.80;;;;;;5100363;28;991;-43
2022/06/29 03:50:59;;;;;;;;;;;29.90;36.80;;;;;;5100169;28;1034;-43
2022/06/29 03:53:25;;;;;;;;;;;29.90;36.80;;;;;;5100149;28;974;-43
2022/06/29 03:55:54;;;;;;;;;;;29.90;36.80;;;;;;5100389;28;1906;-43
2022/06/29 03:58:20;;;;;;;;;;;29.90;36.80;;;;;;5100242;28;935;-43
2022/06/29 04:00:47;;;;;;;;;;;29.90;36.90;;;;;;5099939;28;935;-42
2022/06/29 04:03:14;;;;;;;;;;;29.90;36.90;;;;;;5099885;28;1008;-43
2022/06/29 04:05:41;;;;;;;;;;;29.90;36.90;;;;;;5100181;28;989;-42
2022/06/29 04:08:07;;;;;;;;;;;29.90;36.90;;;;;;5099491;28;996;-43
2022/06/29 04:10:34;;;;;;;;;;;29.90;36.90;;;;;;5099534;28;964;-42
2022/06/29 04:13:02;;;;;;;;;;;29.90;36.90;;;;;;5100008;28;951;-43
2022/06/29 04:15:29;;;;;;;;;;;29.90;36.90;;;;;;5100242;28;916;-43
2022/06/29 04:17:55;;;;;;;;;;;29.90;37.00;;;;;;5099022;28;1958;-42
2022/06/29 04:23:03;;;;;;;;;;;29.80;37.10;;;;;;5098971;28;2103;-42
2022/06/29 04:25:30;;;;;;;;;;;29.80;37.00;;;;;;5098999;28;989;-42
2022/06/29 04:27:57;;;;;;;;;;;29.80;37.10;;;;;;5099419;28;984;-41
2022/06/29 04:30:25;;;;;;;;;;;29.80;37.00;;;;;;5098206;28;1039;-42
2022/06/29 04:32:52;;;;;;;;;;;29.80;37.00;;;;;;5098355;28;1003;-42
2022/06/29 04:35:19;;;;;;;;;;;29.80;37.10;;;;;;5099085;28;989;-42
2022/06/29 04:37:45;;;;;;;;;;;29.80;37.00;;;;;;5098834;28;1980;-44
2022/06/29 04:40:12;;;;;;;;;;;29.80;37.00;;;;;;5098875;28;982;-44
2022/06/29 04:42:39;;;;;;;;;;;29.80;37.00;;;;;;5098551;28;963;-43
2022/06/29 04:45:06;;;;;;;;;;;29.80;37.10;;;;;;5098998;28;985;-44
2022/06/29 04:47:34;;;;;;;;;;;29.80;37.00;;;;;;5098546;28;1008;-43
2022/06/29 04:50:01;;;;;;;;;;;29.70;37.00;;;;;;5098650;28;1160;-44
2022/06/29 04:52:28;;;;;;;;;;;29.80;37.10;;;;;;5098663;28;990;-43
2022/06/29 04:54:55;;;;;;;;;;;29.70;37.00;;;;;;5098478;28;1067;-43
2022/06/29 04:57:21;;;;;;;;;;;29.70;37.00;;;;;;5096359;28;1982;-44
2022/06/29 04:59:48;;;;;;;;;;;29.60;37.00;;;;;;5098471;28;963;-44
2022/06/29 05:02:15;;;;;;;;;;;29.70;37.10;;;;;;5097635;28;1011;-43
2022/06/29 05:04:43;;;;;;;;;;;29.60;37.10;;;;;;5097186;28;936;-44
2022/06/29 05:07:10;;;;;;;;;;;29.60;37.10;;;;;;5097752;28;1086;-44
2022/06/29 05:09:36;;;;;;;;;;;29.60;37.10;;;;;;5097922;28;939;-44
2022/06/29 05:12:03;;;;;;;;;;;29.60;37.10;;;;;;5098074;28;956;-44
2022/06/29 05:14:30;;;;;;;;;;;29.60;37.20;;;;;;5097991;28;988;-44
2022/06/29 05:16:57;;;;;;;;;;;29.60;37.20;;;;;;5097673;28;1898;-44
2022/06/29 05:19:24;;;;;;;;;;;29.60;37.30;;;;;;5097214;28;1011;-41
2022/06/29 05:21:52;;;;;;;;;;;29.60;37.30;;;;;;5098318;28;1003;-41
2022/06/29 05:24:18;;;;;;;;;;;29.60;37.30;;;;;;5097961;28;1073;-42
2022/06/29 05:26:45;;;;;;;;;;;29.60;37.40;;;;;;5097273;28;996;-42
2022/06/29 05:29:12;;;;;;;;;;;29.50;37.40;;;;;;5096870;28;999;-42
2022/06/29 05:31:39;;;;;;;;;;;29.60;37.50;;;;;;5097045;28;1762;-42
2022/06/29 05:34:05;;;;;;;;;;;29.60;37.60;;;;;;5097747;28;1026;-42
2022/06/29 05:36:32;;;;;;;;;;;29.50;37.60;;;;;;5097347;28;1919;-42
2022/06/29 05:39:00;;;;;;;;;;;29.60;37.70;;;;;;5097246;28;971;-42
2022/06/29 05:41:27;;;;;;;;;;;29.60;37.60;;;;;;5097328;28;932;-42
2022/06/29 05:43:54;;;;;;;;;;;29.60;37.70;;;;;;5097553;28;988;-42
2022/06/29 05:46:22;;;;;;;;;;;29.60;37.70;;;;;;5097571;28;959;-42
2022/06/29 05:48:48;;;;;;;;;;;29.60;37.70;;;;;;5097323;28;947;-42
2022/06/29 05:51:15;;;;;;;;;;;29.60;37.70;;;;;;5097074;28;951;-45
2022/06/29 05:53:42;;;;;;;;;;;29.60;37.70;;;;;;5096748;28;976;-42
2022/06/29 05:56:11;;;;;;;;;;;29.50;37.70;;;;;;5097069;28;1774;-43
2022/06/29 05:58:37;;;;;;;;;;;29.60;37.80;;;;;;5097454;28;1996;-42
2022/06/29 06:01:08;;;;;;;;;;;29.50;37.80;;;;;;5097053;28;935;-42
2022/06/29 06:03:35;;;;;;;;;;;29.50;37.90;;;;;;5096280;28;1019;-41
2022/06/29 06:06:02;;;;;;;;;;;29.50;37.90;;;;;;5096596;28;1012;-41
2022/06/29 06:08:28;;;;;;;;;;;29.50;37.90;;;;;;5097306;28;940;-42
2022/06/29 06:10:55;;;;;;;;;;;29.50;38.00;;;;;;5100588;28;984;-42
2022/06/29 06:13:23;;;;;;;;;;;29.50;38.10;;;;;;5101001;28;888;-42
2022/06/29 06:15:50;;;;;;;;;;;29.50;38.10;;;;;;5100374;28;1006;-41
2022/06/29 06:18:17;;;;;;;;;;;29.50;38.10;;;;;;5099773;28;1902;-41
2022/06/29 06:20:43;;;;;;;;;;;29.50;38.10;;;;;;5099940;28;1050;-42
2022/06/29 06:23:10;;;;;;;;;;;29.50;38.20;;;;;;5100534;28;963;-42
2022/06/29 06:25:37;;;;;;;;;;;29.50;38.10;;;;;;5100084;28;997;-42
2022/06/29 06:28:05;;;;;;;;;;;29.50;38.20;;;;;;5100134;28;940;-41
2022/06/29 06:30:33;;;;;;;;;;;29.50;38.30;;;;;;5100747;28;1000;-42
2022/06/29 06:33:00;;;;;;;;;;;29.50;38.30;;;;;;5098874;28;1007;-42
2022/06/29 06:35:27;;;;;;;;;;;29.50;38.30;;;;;;5101094;28;965;-42
2022/06/29 06:37:54;;;;;;;;;;;29.50;38.20;;;;;;5101139;28;1906;-43
2022/06/29 06:43:07;;;;;;;;;;;29.50;38.80;;;;;;5082420;28;1193;-41
2022/06/29 06:45:35;;;;;;;;;;;29.40;39.00;;;;;;5099477;28;1014;-43
2022/06/29 06:48:02;;;;;;;;;;;29.40;38.80;;;;;;5100359;28;987;-43
2022/06/29 06:50:29;;;;;;;;;;;29.40;39.00;;;;;;5099057;28;992;-42
2022/06/29 06:52:56;;;;;;;;;;;29.40;39.00;;;;;;5100139;28;1021;-43
2022/06/29 06:55:23;;;;;;;;;;;29.40;39.00;;;;;;5099884;28;996;-44
2022/06/29 06:57:49;;;;;;;;;;;29.40;39.10;;;;;;5098561;28;1981;-45
2022/06/29 07:00:16;;;;;;;;;;;29.30;39.20;;;;;;5099122;28;1003;-43
2022/06/29 07:02:44;;;;;;;;;;;29.30;39.30;;;;;;5099485;28;883;-44
2022/06/29 07:05:11;;;;;;;;;;;29.30;39.30;;;;;;5099754;28;948;-44
2022/06/29 07:07:39;;;;;;;;;;;29.30;39.20;;;;;;5099153;28;897;-44
2022/06/29 07:10:06;;;;;;;;;;;29.30;39.20;;;;;;5099625;28;1020;-45
2022/06/29 07:12:33;;;;;;;;;;;29.40;39.20;;;;;;5098725;28;944;-45
2022/06/29 07:15:00;;;;;;;;;;;29.40;39.30;;;;;;5099442;28;1042;-45
2022/06/29 07:17:27;;;;;;;;;;;29.40;39.20;;;;;;5099284;28;1964;-44
2022/06/29 07:19:55;;;;;;;;;;;29.40;39.20;;;;;;5098741;28;1261;-40
2022/06/29 07:22:22;;;;;;;;;;;29.40;39.90;;;;;;5098704;28;980;-40
2022/06/29 07:24:48;;;;;;;;;;;29.50;39.20;;;;;;5099263;28;995;-40
2022/06/29 07:27:15;;;;;;;;;;;29.50;39.20;;;;;;5098280;28;1020;-40
2022/06/29 07:29:42;;;;;;;;;;;29.50;39.20;;;;;;5098529;28;1002;-43
2022/06/29 07:32:09;;;;;;;;;;;29.60;38.80;;;;;;5098049;28;987;-33
2022/06/29 07:34:36;;;;;;;;;;;29.70;39.10;;;;;;5099493;28;972;-33
2022/06/29 07:37:04;;;;;;;;;;;29.40;39.40;;;;;;5100131;28;1901;-34
2022/06/29 07:39:31;;;;;;;;;;;29.10;39.90;;;;;;5099098;28;1030;-34
2022/06/29 07:41:58;;;;;;;;;;;29.00;40.10;;;;;;5099169;28;992;-34
2022/06/29 07:44:24;;;;;;;;;;;28.90;40.10;;;;;;5097657;28;988;-34
2022/06/29 07:46:51;;;;;;;;;;;28.80;40.10;;;;;;5098504;28;1021;-34
2022/06/29 07:49:18;;;;;;;;;;;28.80;40.20;;;;;;5098714;28;896;-34
2022/06/29 07:51:45;;;;;;;;;;;28.80;40.20;;;;;;5099172;28;939;-35
2022/06/29 07:54:13;;;;;;;;;;;28.80;40.40;;;;;;5098542;28;1023;-34
2022/06/29 07:56:39;;;;;;;;;;;28.80;40.30;;;;;;5098973;28;1023;-35
2022/06/29 07:59:06;;;;;;;;;;;28.70;40.30;;;;;;5097914;28;1898;-34
2022/06/29 08:01:33;;;;;;;;;;;28.70;41.50;;;;;;5097916;28;943;-34
2022/06/29 08:03:59;;;;;;;;;;;28.70;40.30;;;;;;5097851;28;984;-34
2022/06/29 08:06:26;;;;;;;;;;;28.80;40.50;;;;;;5097073;28;967;-34
2022/06/29 08:08:53;;;;;;;;;;;28.70;40.40;;;;;;5097277;28;1032;-35
2022/06/29 08:11:21;;;;;;;;;;;28.70;40.40;;;;;;5097423;28;909;-35
2022/06/29 08:13:48;;;;;;;;;;;28.80;40.40;;;;;;5097583;28;1386;-34
2022/06/29 08:16:15;;;;;;;;;;;28.80;40.30;;;;;;5097202;28;952;-34
2022/06/29 08:18:42;;;;;;;;;;;28.80;40.50;;;;;;5097130;28;1913;-40
2022/06/29 08:21:09;;;;;;;;;;;28.80;40.50;;;;;;5097165;28;984;-38
2022/06/29 08:23:35;;;;;;;;;;;28.80;40.40;;;;;;5097175;28;967;-41
2022/06/29 08:26:02;;;;;;;;;;;28.80;40.40;;;;;;5097939;28;889;-38
2022/06/29 08:28:30;;;;;;;;;;;28.70;40.50;;;;;;5096089;28;992;-38
2022/06/29 08:30:57;;;;;;;;;;;28.70;40.40;;;;;;5097329;28;1852;-38
2022/06/29 08:33:24;;;;;;;;;;;28.80;40.70;;;;;;5096857;28;983;-38
2022/06/29 08:35:50;;;;;;;;;;;28.80;40.50;;;;;;5096501;28;1043;-39
2022/06/29 08:38:17;;;;;;;;;;;28.80;40.40;;;;;;5095124;28;1902;-41
2022/06/29 08:40:46;;;;;;;;;;;28.80;40.70;;;;;;5094754;28;988;-38
2022/06/29 08:43:14;;;;;;;;;;;28.70;40.50;;;;;;5095833;28;1007;-39
2022/06/29 08:45:42;;;;;;;;;;;28.70;40.70;;;;;;5094511;28;990;-37
2022/06/29 08:48:09;;;;;;;;;;;28.70;40.70;;;;;;5094762;28;960;-38
2022/06/29 08:50:37;;;;;;;;;;;28.70;40.60;;;;;;5095058;28;936;-37
2022/06/29 08:53:06;;;;;;;;;;;28.70;40.50;;;;;;5094094;28;1838;-40
2022/06/29 08:55:34;;;;;;;;;;;28.70;40.60;;;;;;5093966;28;960;-41
2022/06/29 08:58:01;;;;;;;;;;;28.70;40.50;;;;;;5070916;28;1902;-41
2022/06/29 09:00:29;;;;;;;;;;;28.70;40.70;;;;;;5071519;28;961;-39
2022/06/29 09:02:58;;;;;;;;;;;28.70;40.50;;;;;;5092591;28;987;-37
2022/06/29 09:05:24;;;;;;;;;;;28.70;40.50;;;;;;5093603;28;923;-38
2022/06/29 09:07:51;;;;;;;;;;;28.80;40.60;;;;;;5093188;28;844;-38
2022/06/29 09:10:19;;;;;;;;;;;28.80;40.70;;;;;;5093733;28;987;-39
2022/06/29 09:12:49;;;;;;;;;;;28.70;40.70;;;;;;5094319;28;1051;-38
2022/06/29 09:15:16;;;;;;;;;;;28.80;40.50;;;;;;5093839;28;872;-34
2022/06/29 09:17:43;;;;;;;;;;;28.80;40.40;;;;;;5093419;28;1979;-35
2022/06/29 09:20:14;;;;;;;;;;;28.80;40.50;;;;;;5093659;28;1058;-35
2022/06/29 09:22:41;;;;;;;;;;;28.80;40.60;;;;;;5095049;28;971;-35
2022/06/29 09:25:20;;;;;;;;;;;28.80;40.50;;;;;;5093823;28;991;-35
2022/06/29 09:27:47;;;;;;;;;;;28.80;40.60;;;;;;5093888;28;1026;-35
2022/06/29 09:30:23;;;;;;;;;;;28.80;40.60;;;;;;5093178;28;1004;-35
2022/06/29 09:32:57;;;;;;;;;;;28.80;40.50;;;;;;5094781;28;993;-34
2022/06/29 09:35:25;;;;;;;;;;;28.80;40.60;;;;;;5095228;28;948;-35
2022/06/29 09:37:52;;;;;;;;;;;28.80;40.50;;;;;;5094143;28;1909;-35
2022/06/29 09:40:19;;;;;;;;;;;28.80;40.50;;;;;;5094981;28;1006;-36
2022/06/29 09:42:46;;;;;;;;;;;28.80;40.60;;;;;;5094398;28;1485;-36
2022/06/29 09:45:12;;;;;;;;;;;28.80;40.60;;;;;;5095401;28;927;-36
2022/06/29 09:47:40;;;;;;;;;;;28.80;40.60;;;;;;5094183;28;1010;-36
2022/06/29 09:50:10;;;;;;;;;;;28.80;40.50;;;;;;5095340;28;940;-35
2022/06/29 09:52:40;;;;;;;;;;;28.80;40.40;;;;;;5094439;28;1007;-35
2022/06/29 09:55:07;;;;;;;;;;;28.80;40.40;;;;;;5095207;28;1029;-38
2022/06/29 09:57:35;;;;;;;;;;;28.80;40.40;;;;;;5094780;28;865;-40
2022/06/29 10:02:49;;;;;;;;;;;28.80;40.30;;;;;;5094120;28;643;-35
2022/06/29 10:05:16;;;;;;;;;;;28.90;40.40;;;;;;5094235;28;1029;-35
2022/06/29 10:07:45;;;;;;;;;;;28.90;40.40;;;;;;5095121;28;1035;-35
2022/06/29 10:10:13;;;;;;;;;;;28.80;40.30;;;;;;5094193;28;920;-37
2022/06/29 10:15:33;;;;;;;;;;;28.90;40.30;;;;;;5094144;28;868;-36
2022/06/29 10:18:04;;;;;;;;;;;28.90;40.30;;;;;;5093502;28;1901;-35
2022/06/29 10:20:37;;;;;;;;;;;28.90;40.20;;;;;;5095177;28;968;-36
2022/06/29 10:23:05;;;;;;;;;;;28.90;40.20;;;;;;5095454;28;882;-37
2022/06/29 10:25:32;;;;;;;;;;;29.00;40.20;;;;;;5095143;28;951;-38
2022/06/29 10:28:09;;;;;;;;;;;29.00;40.20;;;;;;5094447;28;969;-38
2022/06/29 10:30:36;;;;;;;;;;;29.00;40.20;;;;;;5093337;28;1109;-40
2022/06/29 10:33:18;;;;;;;;;;;29.00;40.20;;;;;;5094143;28;960;-40
2022/06/29 10:35:55;;;;;;;;;;;29.00;40.10;;;;;;5093505;28;1920;-39
2022/06/29 10:38:23;;;;;;;;;;;29.00;40.10;;;;;;5092637;28;1985;-35
2022/06/29 10:41:05;;;;;;;;;;;29.00;40.20;;;;;;5093812;28;1023;-37
2022/06/29 10:43:32;;;;;;;;;;;29.00;40.10;;;;;;5092714;28;1071;-39
2022/06/29 10:45:59;;;;;;;;;;;29.10;40.20;;;;;;5092390;28;928;-38
2022/06/29 10:48:29;;;;;;;;;;;29.00;40.10;;;;;;5093416;28;1015;-39
2022/06/29 10:50:56;;;;;;;;;;;29.00;40.10;;;;;;5093077;28;1017;-38
2022/06/29 10:53:24;;;;;;;;;;;29.00;40.10;;;;;;5091143;28;1047;-36
2022/06/29 10:55:52;;;;;;;;;;;29.00;40.00;;;;;;5090427;28;999;-36
2022/06/29 10:58:19;;;;;;;;;;;29.10;40.10;;;;;;5088336;28;1902;-40
2022/06/29 11:00:46;;;;;;;;;;;29.00;40.20;;;;;;5096453;28;1024;-40
2022/06/29 11:03:14;;;;;;;;;;;29.00;40.10;;;;;;5096430;28;936;-35
2022/06/29 11:14:01;;;;;;;;;;;29.00;40.30;;;;;;5060212;28;1140;-36
2022/06/29 11:16:32;;;;;;;;;;;29.10;40.30;;;;;;5097139;28;947;-41
2022/06/29 11:18:59;;;;;;;;;;;29.10;40.20;;;;;;5096123;28;1968;-35
2022/06/29 11:21:28;;;;;;;;;;;29.00;40.20;;;;;;5096263;28;888;-35
2022/06/29 11:23:57;;;;;;;;;;;29.00;40.20;;;;;;5097057;28;996;-35
2022/06/29 11:26:24;;;;;;;;;;;29.10;40.20;;;;;;5096393;28;1028;-35
2022/06/29 11:28:51;;;;;;;;;;;29.10;40.20;;;;;;5096110;28;1018;-35
2022/06/29 11:31:19;;;;;;;;;;;29.10;40.30;;;;;;5096629;28;995;-35
2022/06/29 11:33:48;;;;;;;;;;;29.10;40.20;;;;;;5095404;28;1003;-35
2022/06/29 11:36:16;;;;;;;;;;;29.10;40.30;;;;;;5094982;28;949;-34
2022/06/29 11:38:44;;;;;;;;;;;29.10;40.20;;;;;;5094591;28;1902;-34
2022/06/29 11:41:13;;;;;;;;;;;29.20;40.20;;;;;;5095287;28;988;-35
2022/06/29 11:43:40;;;;;;;;;;;29.40;40.00;;;;;;5095738;28;969;-35
2022/06/29 11:46:17;;;;;;;;;;;29.40;39.80;;;;;;5095558;28;1023;-34
2022/06/29 11:49:33;;;;;;;;;;;29.50;39.20;;;;;;5094829;28;961;-35
2022/06/29 11:51:36;;;;;;;;;;;29.50;38.50;;;;;;5095205;28;1401;-34
2022/06/29 11:54:06;;;;;;;;;;;29.50;38.70;;;;;;5094985;28;1151;-34
2022/06/29 11:56:34;;;;;;;;;;;29.50;38.50;;;;;;5095116;28;944;-35
2022/06/29 11:59:04;;;;;;;;;;;29.40;38.10;;;;;;5088594;28;1988;-34
2022/06/29 12:01:31;;;;;;;;;;;29.50;38.00;;;;;;5094470;28;904;-35
2022/06/29 12:03:58;;;;;;;;;;;29.50;38.10;;;;;;5095567;28;981;-34
2022/06/29 12:06:27;;;;;;;;;;;29.60;37.40;;;;;;5092051;28;1640;-34
2022/06/29 12:08:56;;;;;;;;;;;29.60;37.10;;;;;;5096783;28;964;-34
2022/06/29 12:11:24;;;;;;;;;;;29.60;38.00;;;;;;5097253;28;1004;-34
2022/06/29 12:13:52;;;;;;;;;;;29.60;36.70;;;;;;5094758;28;975;-35
2022/06/29 12:16:19;;;;;;;;;;;29.70;36.40;;;;;;5094676;28;996;-36
2022/06/29 12:18:46;;;;;;;;;;;29.70;36.30;;;;;;5094648;28;1964;-35
2022/06/29 12:21:13;;;;;;;;;;;29.70;36.40;;;;;;5096007;28;1007;-35
2022/06/29 12:23:40;;;;;;;;;;;29.70;36.10;;;;;;5095491;28;951;-36
2022/06/29 12:26:08;;;;;;;;;;;29.70;35.90;;;;;;5095502;28;1027;-35
2022/06/29 12:28:37;;;;;;;;;;;29.70;35.80;;;;;;5094177;28;944;-36
2022/06/29 12:31:06;;;;;;;;;;;29.70;35.70;;;;;;5095628;28;849;-36
2022/06/29 12:36:21;;;;;;;;;;;29.80;35.50;;;;;;5086992;28;1429;-36
2022/06/29 12:38:48;;;;;;;;;;;29.80;35.30;;;;;;5095858;28;1906;-38
2022/06/29 12:41:14;;;;;;;;;;;29.70;35.70;;;;;;5095266;28;1182;-37
2022/06/29 12:43:57;;;;;;;;;;;29.70;35.70;;;;;;5095744;28;989;-36
2022/06/29 12:46:32;;;;;;;;;;;29.80;35.50;;;;;;5096566;28;1568;-37
2022/06/29 12:49:05;;;;;;;;;;;29.90;34.50;;;;;;5097238;28;2418;-41
2022/06/29 12:51:59;;;;;;;;;;;29.90;34.90;;;;;;5094510;28;1405;-42
2022/06/29 12:54:27;;;;;;;;;;;29.80;35.30;;;;;;5084573;28;914;-39
2022/06/29 12:56:58;;;;;;;;;;;29.70;35.60;;;;;;5095495;28;1060;-41
2022/06/29 12:59:29;;;;;;;;;;;29.80;35.50;;;;;;5095091;28;1988;-39
2022/06/29 13:01:59;;;;;;;;;;;29.70;35.50;;;;;;5094339;28;1568;-37
2022/06/29 13:04:29;;;;;;;;;;;29.60;35.70;;;;;;5094610;28;989;-37
2022/06/29 13:06:56;;;;;;;;;;;29.50;35.80;;;;;;5094253;28;842;-38
2022/06/29 13:09:31;;;;;;;;;;;29.60;35.30;;;;;;5095987;28;900;-42
2022/06/29 13:12:17;;;;;;;;;;;29.60;35.30;;;;;;5096652;28;2170;-39
2022/06/29 13:15:11;;;;;;;;;;;29.60;35.40;;;;;;5095374;28;1712;-40
2022/06/29 13:18:02;;;;;;;;;;;29.70;35.60;;;;;;5093428;28;1143;-41
2022/06/29 13:20:41;;;;;;;;;;;29.60;35.60;;;;;;5056330;28;2001;-34
2022/06/29 13:23:09;;;;;;;;;;;29.70;35.70;;;;;;5056908;28;1040;-41
2022/06/29 13:25:40;;;;;;;;;;;29.80;35.60;;;;;;5055483;28;2373;-40
2022/06/29 13:28:09;;;;;;;;;;;29.80;35.70;;;;;;5056349;28;1031;-38
2022/06/29 13:30:37;;;;;;;;;;;29.80;36.00;;;;;;5055006;28;1526;-41
2022/06/29 13:33:13;;;;;;;;;;;29.90;36.00;;;;;;5055428;28;980;-35
2022/06/29 13:35:51;;;;;;;;;;;29.80;36.30;;;;;;5056124;28;1625;-36
2022/06/29 13:41:26;;;;;;;;;;;30.00;36.10;;;;;;5056097;28;1593;-41
2022/06/29 13:44:01;;;;;;;;;;;30.00;36.30;;;;;;5056735;28;988;-35
2022/06/29 13:46:44;;;;;;;;;;;30.00;36.30;;;;;;5055859;28;1462;-40
2022/06/29 13:49:16;;;;;;;;;;;30.10;36.30;;;;;;5055932;28;2265;-37
2022/06/29 13:51:49;;;;;;;;;;;30.10;36.30;;;;;;5056135;28;1383;-34
2022/06/29 13:54:20;;;;;;;;;;;30.10;36.40;;;;;;5057331;28;1477;-38
2022/06/29 13:56:52;;;;;;;;;;;30.20;36.40;;;;;;5057396;28;1529;-37
2022/06/29 13:59:25;;;;;;;;;;;30.20;36.20;;;;;;5055465;28;1909;-36
2022/06/29 14:02:00;;;;;;;;;;;30.30;36.40;;;;;;5055874;28;1532;-39
2022/06/29 14:04:37;;;;;;;;;;;30.40;36.20;;;;;;5054328;28;1127;-40
2022/06/29 14:10:04;;;;;;;;;;;30.60;35.90;;;;;;5056000;28;652;-36
2022/06/29 14:12:38;;;;;;;;;;;30.70;35.90;;;;;;5055558;28;1538;-37
2022/06/29 14:17:55;;;;;;;;;;;30.60;36.20;;;;;;5055486;28;1498;-39
2022/06/29 14:20:28;;;;;;;;;;;30.60;36.10;;;;;;5091872;28;1987;-39
2022/06/29 14:22:57;;;;;;;;;;;30.60;36.10;;;;;;5095116;28;989;-35
2022/06/29 14:25:29;;;;;;;;;;;30.60;36.30;;;;;;5094706;28;948;-39
2022/06/29 14:30:59;;;;;;;;;;;30.60;36.40;;;;;;4667692;27;11561184;-35
2022/06/29 14:33:27;;;;;;;;;;;30.50;37.10;;;;;;5074770;28;1456;-41
2022/06/29 14:36:27;;;;;;;;;;;30.60;36.60;;;;;;5072576;28;1961;-43
2022/06/29 14:38:56;;;;;;;;;;;30.50;36.60;;;;;;5073488;28;1341;-40
2022/06/29 14:41:32;;;;;;;;;;;30.60;36.40;;;;;;5073345;28;1433;-42
2022/06/29 14:44:02;;;;;;;;;;;30.70;36.40;;;;;;5073826;28;1140;-39
2022/06/29 14:46:31;;;;;;;;;;;30.70;36.50;;;;;;5073159;28;932;-39
2022/06/29 14:48:58;;;;;;;;;;;30.60;36.40;;;;;;5071577;28;1929;-38
2022/06/29 14:51:25;;;;;;;;;;;30.70;36.50;;;;;;5072074;28;1101;-37
2022/06/29 14:53:52;;;;;;;;;;;30.70;36.40;;;;;;5072672;28;894;-35
2022/06/29 14:56:20;;;;;;;;;;;30.60;37.90;;;;;;5071311;28;957;-35
2022/06/29 14:58:46;;;;;;;;;;;30.60;37.20;;;;;;5071446;28;1047;-37
2022/06/29 15:01:13;;;;;;;;;;;30.60;37.30;;;;;;5070860;28;1052;-38
2022/06/29 15:03:43;;;;;;;;;;;30.60;37.20;;;;;;5071055;28;958;-36
2022/06/29 15:06:10;;;;;;;;;;;30.50;37.20;;;;;;5071026;28;929;-35
2022/06/29 15:08:38;;;;;;;;;;;30.60;37.10;;;;;;5070245;28;980;-35
2022/06/29 15:11:05;;;;;;;;;;;30.60;37.00;;;;;;5071253;28;1914;-35
2022/06/29 15:13:31;;;;;;;;;;;30.60;37.00;;;;;;5070759;28;1028;-35
2022/06/29 15:15:59;;;;;;;;;;;30.60;37.00;;;;;;5070807;28;980;-34
2022/06/29 15:18:26;;;;;;;;;;;30.60;37.10;;;;;;5069648;28;1298;-36